Takamatsu Airport, Japan

2:21 PM JST on December 20, 2014 (GMT +0900)
Takamatsu | Change Station
CLOSE
Current Station
Airport
Location: Takamatsu Airport,
Elevation: 617 ft
Nearby Weather Stations

Elev 617 ft 34.21 °N, 134.02 °E | Updated 21 minutes ago

Light Rain Showers
Light Showers Rain Mist
43 °F
Feels Like 36 °F
N
13
Wind Variable Wind from West

Today
High -- | Low -- °F
--% Chance of Precip.
Yesterday
High -- | Low -- °F
Precip. -- in
7:05 AM 4:57 PM
Waning Crescent, 4% visible
Pressure 29.86 in
Visibility 3.7 miles
Clouds Few 100 ft
Scattered Clouds 1000 ft
Mostly Cloudy 2500 ft
Windchill 36 °F
Dew Point 41 °F
Humidity 93%
Rainfall 0.00 in
Snow Depth Not available.
UV 1 out of 12
Pollen Not available.
Air Quality Not available.
Flu Activity Not available.
METAR RJOT 200500Z 27011KT 6000 -SHRA BR FEW001 SCT010 BKN025 06/05 Q1011

More Conditions Fewer Conditions

Pressure 29.86 in
Visibility 3.7 miles
Clouds Few 100 ft
Scattered Clouds 1000 ft
Mostly Cloudy 2500 ft
Windchill 36 °F
Dew Point 41 °F
Humidity 93%
Rainfall 0.00 in
Snow Depth Not available.
UV 1 out of 12
Pollen Not available.
Air Quality Not available.
Flu Activity Not available.
METAR RJOT 200500Z 27011KT 6000 -SHRA BR FEW001 SCT010 BKN025 06/05 Q1011

More Conditions Fewer Conditions

10-Day Weather Forecast

Almanac

Astronomy

Dec. 20, 2014 Rise Set
Actual Time
Civil Twilight
Nautical Twilight
Astronomical Twilight
Moon
Length of Visible Light
Length of Day
Tomorrow will be .
, % of the Moon is Illuminated

Today's Extremes

Country Highs Country Lows

Community

WunderPhotos

Upload Photos

1,779,137 photos uploaded!

WunderBlogs® & News

Nearby

Air Quality

  Air Quality AQ Index Pollutant
Not available.

Snow Depth

Station Depth Elevation

Earthquake Activity

City Distance Mag. Time & Date
Minimum magnitude displayed is 2.5.

Coastal Water Temperatures

Place Temperature

Nearby Weather Stations